This is the latest recevied weather packets stored in our database for station/object K6CQU-13. If no packets are shown the sender has not sent any weather packets the latest 10 day(s).
| Time | Temp. | Humidity | Pressure | Rain* | Wind** | Luminosity | Snow |
|---|---|---|---|---|---|---|---|
| 1777503317 | 26.67° C | 32% | 1015.1 hPa | 0 mm | - | 713 W/m² | - |
| 1777501217 | 26.11° C | 27% | 1015.4 hPa | 0 mm | - | 800 W/m² | - |
| 1777500017 | 26.11° C | 31% | 1015.7 hPa | 0 mm | - | 836 W/m² | - |
| 1777494316 | 24.44° C | 41% | 1016.6 hPa | 0 mm | - | 933 W/m² | - |
| 1777491316 | 23.89° C | 47% | 1017.2 hPa | 0 mm | - | 921 W/m² | - |
| 1777490718 | 23.33° C | 49% | 1017.4 hPa | 0 mm | - | 912 W/m² | - |
| 1777487718 | 21.11° C | 56% | 1018.1 hPa | 0 mm | - | 850 W/m² | - |
| 1777484118 | 20° C | 59% | 1018.3 hPa | 0 mm | - | 734 W/m² | - |
| 1777483818 | 20° C | 59% | 1018.3 hPa | 0 mm | - | 723 W/m² | - |
| 1777483518 | 20° C | 59% | 1018.3 hPa | 0 mm | - | 710 W/m² | - |
| 1777482918 | 20° C | 61% | 1018.3 hPa | 0 mm | - | 685 W/m² | - |
| 1777482318 | 19.44° C | 60% | 1018.4 hPa | 0 mm | - | 658 W/m² | - |
| 1777481118 | 18.89° C | 61% | 1018.5 hPa | 0 mm | - | 604 W/m² | - |
| 1777477818 | 18.33° C | 63% | 1018.7 hPa | 0 mm | - | 435 W/m² | - |
| 1777477518 | 18.33° C | 64% | 1018.7 hPa | 0 mm | - | 417 W/m² | - |
| 1777468217 | 10.56° C | 83% | 1018 hPa | 0 mm | - | 0 W/m² | - |
| 1777467917 | 11.11° C | 83% | 1018 hPa | 0 mm | - | 0 W/m² | - |
| 1777466117 | 11.67° C | 81% | 1018 hPa | 0 mm | - | 0 W/m² | - |
| 1777465217 | 12.22° C | 79% | 1018 hPa | 0 mm | - | 0 W/m² | - |
| 1777463417 | 12.78° C | 77% | 1017.9 hPa | 0 mm | - | 0 W/m² | - |
| 1777462517 | 12.78° C | 76% | 1018.1 hPa | 0 mm | - | 0 W/m² | - |
| 1777462217 | 13.33° C | 75% | 1018.1 hPa | 0 mm | - | 0 W/m² | - |
| 1777461617 | 13.33° C | 75% | 1017.9 hPa | 0 mm | - | 0 W/m² | - |
| 1777461317 | 13.33° C | 75% | 1017.9 hPa | 0 mm | - | 0 W/m² | - |
| 1777460417 | 13.89° C | 75% | 1017.8 hPa | 0 mm | - | 0 W/m² | - |
* Rain latest hour (hover to see other rain measurements)
** Current wind speed in m/s (hover to see current wind gust speed)